EXS52U EGCC-BIKF
Flight info
| Callsign | EXS52U |
|---|---|
| Flight time | N/A |
| Altitude | 35000 |
| Route | POL N601 ERGAB DCT BARKU DCT RATSU/M079F350 DCT ALDAN DCT ASRUN ASRUN4N |
| Aircraft | A321/M-SDE3FGHIRWY/LB1 |
Departure
| Time | 2026-05-04 12:43 |
|---|---|
| Airport | Manchester Airport (EGCC) |
Arrival
| Time | N/A |
|---|---|
| Airport | Keflavik International Airport (BIKF) |
| Time | Latitude | Longitude | Altitude | Speed | Heading |
|---|---|---|---|---|---|
| 2026-05-04 12:20 | 53.35951 | -2.27136 | 233 ft | 0 kts | 89° |
| 2026-05-04 12:31 | 53.35951 | -2.27139 | 233 ft | 2 kts | 89° |
| 2026-05-04 12:31 | 53.35951 | -2.27181 | 233 ft | 3 kts | 89° |
| 2026-05-04 12:31 | 53.35952 | -2.27217 | 233 ft | 4 kts | 121° |
| 2026-05-04 12:32 | 53.35970 | -2.27239 | 237 ft | 4 kts | 174° |
| 2026-05-04 12:32 | 53.35982 | -2.27240 | 233 ft | 0 kts | 178° |
| 2026-05-04 12:34 | 53.35964 | -2.27239 | 237 ft | 0 kts | 178° |
| 2026-05-04 12:34 | 53.35949 | -2.27238 | 233 ft | 7 kts | 177° |
| 2026-05-04 12:35 | 53.35897 | -2.27228 | 233 ft | 7 kts | 172° |
| 2026-05-04 12:35 | 53.35852 | -2.27218 | 233 ft | 7 kts | 178° |
| 2026-05-04 12:35 | 53.35819 | -2.27247 | 234 ft | 4 kts | 232° |
| 2026-05-04 12:35 | 53.35803 | -2.27285 | 233 ft | 4 kts | 234° |
| 2026-05-04 12:36 | 53.35791 | -2.27314 | 234 ft | 2 kts | 233° |
| 2026-05-04 12:36 | 53.35777 | -2.27346 | 233 ft | 7 kts | 232° |
| 2026-05-04 12:36 | 53.35727 | -2.27448 | 233 ft | 14 kts | 231° |
| 2026-05-04 12:36 | 53.35671 | -2.27566 | 233 ft | 12 kts | 231° |
| 2026-05-04 12:37 | 53.35616 | -2.27664 | 233 ft | 11 kts | 223° |
| 2026-05-04 12:37 | 53.35565 | -2.27745 | 233 ft | 9 kts | 224° |
| 2026-05-04 12:37 | 53.35523 | -2.27813 | 233 ft | 8 kts | 224° |
| 2026-05-04 12:37 | 53.35487 | -2.27871 | 233 ft | 6 kts | 224° |
| 2026-05-04 12:38 | 53.35450 | -2.27930 | 233 ft | 9 kts | 224° |
| 2026-05-04 12:38 | 53.35374 | -2.28053 | 233 ft | 18 kts | 224° |
| 2026-05-04 12:38 | 53.35287 | -2.28196 | 233 ft | 17 kts | 225° |
| 2026-05-04 12:38 | 53.35213 | -2.28337 | 234 ft | 15 kts | 231° |
| 2026-05-04 12:39 | 53.35149 | -2.28471 | 233 ft | 14 kts | 231° |
| 2026-05-04 12:39 | 53.35091 | -2.28592 | 233 ft | 13 kts | 231° |
| 2026-05-04 12:39 | 53.35039 | -2.28699 | 233 ft | 11 kts | 229° |
| 2026-05-04 12:39 | 53.34989 | -2.28787 | 233 ft | 10 kts | 226° |
| 2026-05-04 12:40 | 53.34936 | -2.28877 | 233 ft | 15 kts | 226° |
| 2026-05-04 12:40 | 53.34850 | -2.29027 | 233 ft | 18 kts | 227° |
| 2026-05-04 12:40 | 53.34767 | -2.29195 | 233 ft | 19 kts | 231° |
| 2026-05-04 12:40 | 53.34673 | -2.29332 | 233 ft | 17 kts | 204° |
| 2026-05-04 12:41 | 53.34571 | -2.29305 | 233 ft | 14 kts | 148° |
| 2026-05-04 12:41 | 53.34560 | -2.29181 | 234 ft | 11 kts | 51° |
| 2026-05-04 12:41 | 53.34598 | -2.29104 | 233 ft | 0 kts | 51° |
| 2026-05-04 12:42 | 53.34614 | -2.29070 | 233 ft | 14 kts | 51° |
| 2026-05-04 12:42 | 53.34796 | -2.28693 | 234 ft | 77 kts | 51° |
| 2026-05-04 12:42 | 53.35268 | -2.27719 | 232 ft | 136 kts | 51° |
| 2026-05-04 12:42 | 53.35956 | -2.26300 | 398 ft | 166 kts | 50° |
| 2026-05-04 12:43 | 53.36637 | -2.24896 | 1365 ft | 147 kts | 51° |
| 2026-05-04 12:43 | 53.37286 | -2.23578 | 1968 ft | 151 kts | 52° |
| 2026-05-04 12:43 | 53.37933 | -2.22146 | 2495 ft | 156 kts | 53° |
| 2026-05-04 12:43 | 53.38635 | -2.20603 | 2675 ft | 177 kts | 52° |
| 2026-05-04 12:44 | 53.39426 | -2.18879 | 2840 ft | 197 kts | 52° |
| 2026-05-04 12:44 | 53.40292 | -2.17001 | 2975 ft | 215 kts | 52° |
| 2026-05-04 12:44 | 53.41255 | -2.14914 | 3091 ft | 238 kts | 52° |
| 2026-05-04 12:44 | 53.42315 | -2.12616 | 3406 ft | 257 kts | 52° |
| 2026-05-04 12:45 | 53.43500 | -2.10327 | 3899 ft | 263 kts | 37° |
| 2026-05-04 12:45 | 53.45171 | -2.09206 | 3989 ft | 262 kts | 2° |
| 2026-05-04 12:45 | 53.46979 | -2.09540 | 4059 ft | 264 kts | 351° |
| 2026-05-04 12:45 | 53.48807 | -2.09915 | 4797 ft | 265 kts | 353° |
| 2026-05-04 12:46 | 53.50639 | -2.10248 | 5518 ft | 268 kts | 356° |
| 2026-05-04 12:46 | 53.52523 | -2.10259 | 6222 ft | 270 kts | 2° |
| 2026-05-04 12:46 | 53.54411 | -2.10043 | 6888 ft | 273 kts | 4° |
| 2026-05-04 12:46 | 53.56319 | -2.09890 | 7538 ft | 276 kts | 1° |
| 2026-05-04 12:47 | 53.58248 | -2.09852 | 8176 ft | 279 kts | 359° |
| 2026-05-04 12:47 | 53.60199 | -2.09878 | 8810 ft | 282 kts | 359° |
| 2026-05-04 12:47 | 53.62168 | -2.09935 | 9436 ft | 284 kts | 358° |
| 2026-05-04 12:47 | 53.64155 | -2.10006 | 10049 ft | 287 kts | 358° |
| 2026-05-04 12:48 | 53.66193 | -2.10078 | 10338 ft | 302 kts | 358° |
| 2026-05-04 12:48 | 53.68363 | -2.10151 | 10453 ft | 321 kts | 358° |
| 2026-05-04 12:48 | 53.70657 | -2.10222 | 10580 ft | 339 kts | 358° |
| 2026-05-04 12:48 | 53.73055 | -2.10353 | 10884 ft | 349 kts | 353° |
| 2026-05-04 12:49 | 53.75443 | -2.11139 | 11377 ft | 352 kts | 342° |
| 2026-05-04 12:49 | 53.77741 | -2.12614 | 11892 ft | 355 kts | 337° |
| 2026-05-04 12:49 | 53.80041 | -2.14187 | 12445 ft | 358 kts | 337° |
| 2026-05-04 12:49 | 53.82358 | -2.15768 | 12984 ft | 361 kts | 337° |
| 2026-05-04 12:50 | 53.84698 | -2.17361 | 13533 ft | 364 kts | 337° |
| 2026-05-04 12:50 | 53.87050 | -2.18965 | 14033 ft | 366 kts | 337° |
| 2026-05-04 12:50 | 53.89427 | -2.20590 | 14501 ft | 369 kts | 337° |
| 2026-05-04 12:50 | 53.91816 | -2.22225 | 14964 ft | 371 kts | 337° |
| 2026-05-04 12:51 | 53.94220 | -2.23872 | 15420 ft | 374 kts | 337° |
| 2026-05-04 12:51 | 53.96638 | -2.25532 | 15876 ft | 376 kts | 337° |
| 2026-05-04 12:51 | 53.99072 | -2.27206 | 16322 ft | 379 kts | 337° |
| 2026-05-04 12:51 | 54.01520 | -2.28896 | 16763 ft | 381 kts | 337° |
| 2026-05-04 12:52 | 54.03987 | -2.30602 | 17194 ft | 384 kts | 337° |
| 2026-05-04 12:52 | 54.06462 | -2.32318 | 17617 ft | 386 kts | 337° |
| 2026-05-04 12:52 | 54.08925 | -2.34029 | 18027 ft | 388 kts | 337° |